Time;durP1;ratioP1;P1;durP2;ratioP2;P2;SDS_P1;SDS_P2;PMS_P1;PMS_P2;Temp;Humidity;BMP_temperature;BMP_pressure;BME280_temperature;BME280_humidity;BME280_pressure;Samples;Min_cycle;Max_cycle;Signal;HPM_P1;HPM_P2
2022/07/02 00:01:36;;;;;;;1.67;1.23;;;20.70;99.90;;;;;;5053513;28;20189;-69
2022/07/02 00:04:04;;;;;;;1.08;0.98;;;20.80;99.90;;;;;;5054025;28;20312;-68
2022/07/02 00:06:31;;;;;;;3.05;1.13;;;20.80;99.90;;;;;;5053550;28;20560;-70
2022/07/02 00:08:56;;;;;;;1.02;0.80;;;20.80;99.90;;;;;;5053246;28;20217;-68
2022/07/02 00:11:25;;;;;;;1.83;1.00;;;20.90;99.90;;;;;;5053676;28;20201;-68
2022/07/02 00:13:52;;;;;;;1.00;0.82;;;20.90;99.90;;;;;;5053388;28;20620;-67
2022/07/02 00:16:17;;;;;;;1.40;0.80;;;20.90;99.90;;;;;;5053376;28;20627;-67
2022/07/02 00:18:43;;;;;;;0.55;0.55;;;21.00;99.90;;;;;;5053159;28;20304;-68
2022/07/02 00:21:10;;;;;;;2.08;0.95;;;20.90;99.90;;;;;;5051834;28;20205;-69
2022/07/02 00:23:35;;;;;;;0.98;0.98;;;20.80;99.90;;;;;;5053386;28;20247;-68
2022/07/02 00:26:14;;;;;;;0.68;0.63;;;20.60;99.90;;;;;;5053823;28;20194;-67
2022/07/02 00:28:42;;;;;;;0.80;0.80;;;20.50;99.90;;;;;;5053292;28;20534;-67
2022/07/02 00:31:08;;;;;;;1.02;1.00;;;20.50;99.90;;;;;;5053364;28;20616;-67
2022/07/02 00:33:37;;;;;;;1.38;0.93;;;20.40;99.90;;;;;;5052629;28;20217;-67
2022/07/02 00:36:03;;;;;;;1.48;1.00;;;20.40;99.90;;;;;;5053441;28;20193;-69
2022/07/02 00:38:29;;;;;;;0.77;0.77;;;20.50;99.90;;;;;;5052899;28;20196;-67
2022/07/02 00:40:55;;;;;;;1.65;1.23;;;20.70;99.90;;;;;;5045832;28;20194;-68
2022/07/02 00:43:22;;;;;;;0.90;0.75;;;20.80;99.90;;;;;;5033391;28;20203;-66
2022/07/02 00:45:48;;;;;;;1.95;0.90;;;20.90;99.90;;;;;;5032883;28;20194;-67
2022/07/02 00:48:14;;;;;;;1.25;0.82;;;21.00;99.90;;;;;;5032916;28;20198;-68
2022/07/02 00:50:40;;;;;;;0.82;0.82;;;21.10;99.90;;;;;;5015558;28;20680;-70
2022/07/02 00:53:06;;;;;;;1.75;0.95;;;21.10;99.90;;;;;;5033219;28;20194;-69
2022/07/02 00:55:32;;;;;;;0.85;0.85;;;21.10;99.90;;;;;;5032840;28;20205;-68
2022/07/02 00:57:58;;;;;;;3.95;1.20;;;21.10;99.90;;;;;;5033004;28;20200;-68
2022/07/02 01:00:23;;;;;;;1.30;0.98;;;21.20;99.90;;;;;;5032274;28;20587;-69
2022/07/02 01:02:50;;;;;;;0.93;0.93;;;21.20;99.90;;;;;;5032674;28;20253;-72
2022/07/02 01:05:19;;;;;;;0.75;0.68;;;21.20;99.90;;;;;;5015844;28;20203;-72
2022/07/02 01:10:16;;;;;;;1.13;1.02;;;21.20;99.90;;;;;;5052884;28;20227;-72
2022/07/02 01:10:44;;;;;;;0.90;0.90;;;21.30;99.90;;;;;;5052500;28;20208;-72
2022/07/02 01:13:11;;;;;;;1.27;1.00;;;21.30;99.90;;;;;;5053387;28;20197;-73
2022/07/02 01:15:38;;;;;;;0.95;0.88;;;21.30;99.90;;;;;;5052200;28;20213;-72
2022/07/02 01:18:04;;;;;;;2.10;1.38;;;21.20;99.90;;;;;;5052120;28;20623;-73
2022/07/02 01:20:30;;;;;;;1.38;1.05;;;20.90;99.90;;;;;;5034993;28;20631;-73
2022/07/02 01:22:56;;;;;;;2.47;1.58;;;20.70;99.90;;;;;;5034876;28;20284;-72
2022/07/02 01:25:22;;;;;;;2.28;0.98;;;20.60;99.90;;;;;;5052750;28;20225;-72
2022/07/02 01:27:48;;;;;;;1.33;1.23;;;20.60;99.90;;;;;;5052684;28;20190;-72
2022/07/02 01:30:14;;;;;;;2.20;1.27;;;20.60;99.90;;;;;;5052725;28;20198;-73
2022/07/02 01:32:40;;;;;;;1.30;1.20;;;20.70;99.90;;;;;;5052555;28;20572;-73
2022/07/02 01:35:08;;;;;;;1.85;1.50;;;20.80;99.90;;;;;;5052239;28;20213;-72
2022/07/02 01:37:37;;;;;;;2.33;1.38;;;20.90;99.90;;;;;;5041761;28;20672;-72
2022/07/02 01:40:04;;;;;;;1.35;1.25;;;20.90;99.90;;;;;;5032660;28;20720;-72
2022/07/02 01:42:30;;;;;;;1.95;1.05;;;20.90;99.90;;;;;;5032093;28;20693;-72
2022/07/02 01:44:55;;;;;;;1.35;1.05;;;21.00;99.90;;;;;;5031562;28;20281;-73
2022/07/02 01:47:21;;;;;;;0.80;0.80;;;21.00;99.90;;;;;;5031885;28;20324;-72
2022/07/02 01:49:47;;;;;;;1.60;0.93;;;20.90;99.90;;;;;;5014931;28;20205;-73
2022/07/02 01:52:14;;;;;;;1.10;1.08;;;20.90;99.90;;;;;;5032355;28;20198;-74
2022/07/02 01:54:41;;;;;;;1.13;1.02;;;21.00;99.90;;;;;;5014462;28;20348;-74
2022/07/02 01:57:07;;;;;;;2.08;1.58;;;21.00;99.90;;;;;;5032543;28;20637;-74
2022/07/02 01:59:33;;;;;;;1.67;1.33;;;21.10;99.90;;;;;;5032108;28;20216;-73
2022/07/02 02:01:59;;;;;;;1.65;1.50;;;21.10;99.90;;;;;;5034290;28;20680;-73
2022/07/02 02:04:25;;;;;;;1.20;1.08;;;21.10;99.90;;;;;;5031843;28;20197;-72
2022/07/02 02:06:51;;;;;;;0.75;0.75;;;21.20;99.90;;;;;;5046116;28;20205;-72
2022/07/02 02:09:16;;;;;;;6.07;1.83;;;21.20;99.90;;;;;;5052406;28;20198;-73
2022/07/02 02:11:43;;;;;;;1.83;1.48;;;21.00;99.90;;;;;;5034160;28;20201;-73
2022/07/02 02:14:09;;;;;;;4.20;2.10;;;20.90;99.90;;;;;;5051669;28;20235;-73
2022/07/02 02:16:35;;;;;;;1.80;1.13;;;20.90;99.90;;;;;;5051605;28;20198;-72
2022/07/02 02:19:01;;;;;;;1.27;1.17;;;20.90;99.90;;;;;;5051966;28;20186;-73
2022/07/02 02:21:28;;;;;;;1.48;1.13;;;21.10;99.90;;;;;;5051771;28;20556;-74
2022/07/02 02:23:55;;;;;;;1.65;1.38;;;21.10;99.90;;;;;;5034373;28;20205;-72
2022/07/02 02:26:22;;;;;;;2.00;1.50;;;21.10;99.90;;;;;;5051131;28;20201;-73
2022/07/02 02:28:47;;;;;;;1.48;0.90;;;21.20;99.90;;;;;;5051761;28;20212;-73
2022/07/02 02:31:13;;;;;;;1.10;0.93;;;21.20;99.90;;;;;;5052225;28;20202;-73
2022/07/02 02:33:39;;;;;;;6.28;1.65;;;21.00;99.90;;;;;;5042661;28;20202;-74
2022/07/02 02:36:05;;;;;;;1.73;1.38;;;20.70;99.90;;;;;;5032014;28;20182;-75
2022/07/02 02:38:31;;;;;;;0.82;0.82;;;20.60;99.90;;;;;;5031582;28;20202;-74
2022/07/02 02:40:57;;;;;;;1.80;1.10;;;20.20;99.90;;;;;;5031668;28;20187;-74
2022/07/02 02:43:23;;;;;;;2.28;1.58;;;20.10;99.90;;;;;;5031410;28;20661;-73
2022/07/02 02:45:48;;;;;;;0.77;0.70;;;20.10;99.90;;;;;;5013769;28;20345;-74
2022/07/02 02:48:15;;;;;;;0.95;0.77;;;20.10;99.90;;;;;;5031472;28;20202;-74
2022/07/02 02:50:41;;;;;;;0.68;0.68;;;20.20;99.90;;;;;;5031507;28;20243;-74
2022/07/02 02:53:07;;;;;;;0.60;0.60;;;20.30;99.90;;;;;;5031490;28;20293;-74
2022/07/02 02:55:32;;;;;;;0.40;0.40;;;20.30;99.90;;;;;;5031401;28;20214;-74
2022/07/02 02:57:58;;;;;;;0.73;0.70;;;20.40;99.90;;;;;;5035010;28;20306;-73
2022/07/02 03:00:24;;;;;;;2.22;0.98;;;20.40;99.90;;;;;;5037598;28;20198;-74
2022/07/02 03:02:49;;;;;;;1.10;1.00;;;20.40;99.90;;;;;;5040065;28;20202;-74
2022/07/02 03:05:15;;;;;;;0.55;0.52;;;20.30;99.90;;;;;;5035396;28;20202;-74
2022/07/02 03:07:41;;;;;;;0.60;0.60;;;20.40;99.90;;;;;;5037123;28;20229;-72
2022/07/02 03:10:07;;;;;;;1.10;1.00;;;20.40;99.90;;;;;;5053112;28;20205;-73
2022/07/02 03:12:33;;;;;;;0.75;0.55;;;20.20;99.90;;;;;;5055110;28;20194;-73
2022/07/02 03:14:59;;;;;;;0.73;0.73;;;20.20;99.90;;;;;;5055082;28;20232;-72
2022/07/02 03:17:24;;;;;;;1.23;1.08;;;20.20;99.90;;;;;;5049460;28;20315;-72
2022/07/02 03:19:51;;;;;;;2.60;0.70;;;20.20;99.90;;;;;;5075174;28;20197;-73
2022/07/02 03:22:17;;;;;;;0.70;0.70;;;20.30;99.90;;;;;;5073296;28;20770;-73
2022/07/02 03:24:43;;;;;;;0.75;0.60;;;20.40;99.90;;;;;;5074973;28;20249;-73
2022/07/02 03:27:09;;;;;;;0.57;0.57;;;20.50;99.90;;;;;;5074785;28;20276;-74
2022/07/02 03:29:34;;;;;;;0.68;0.68;;;20.60;99.90;;;;;;5073438;28;20285;-74
2022/07/02 03:32:00;;;;;;;0.75;0.75;;;20.60;99.90;;;;;;5074785;28;20488;-73
2022/07/02 03:34:26;;;;;;;0.73;0.50;;;20.20;99.90;;;;;;5074300;28;20200;-74
2022/07/02 03:36:51;;;;;;;0.30;0.30;;;19.90;99.90;;;;;;5073211;28;20200;-74
2022/07/02 03:39:17;;;;;;;0.60;0.43;;;19.70;99.90;;;;;;5074949;28;20712;-73
2022/07/02 03:41:43;;;;;;;0.32;0.32;;;19.50;99.90;;;;;;5074436;28;20200;-71
2022/07/02 03:44:08;;;;;;;0.22;0.22;;;19.60;99.90;;;;;;5073497;28;20295;-73
2022/07/02 03:46:34;;;;;;;0.30;0.30;;;19.60;99.90;;;;;;5074581;28;20185;-73
2022/07/02 03:49:00;;;;;;;0.20;0.20;;;19.70;99.90;;;;;;5074251;28;20201;-73
2022/07/02 03:51:26;;;;;;;0.40;0.40;;;19.40;99.90;;;;;;5074359;28;20281;-74
2022/07/02 03:53:51;;;;;;;0.32;0.32;;;19.10;99.90;;;;;;5073993;28;20232;-74
2022/07/02 03:56:17;;;;;;;0.30;0.30;;;18.80;99.90;;;;;;5074219;28;20180;-73
2022/07/02 03:58:43;;;;;;;0.20;0.20;;;18.70;99.90;;;;;;5072957;28;20192;-75
2022/07/02 04:01:08;;;;;;;0.20;0.20;;;18.50;99.90;;;;;;5072723;28;20236;-74
2022/07/02 04:03:35;;;;;;;0.65;0.40;;;18.40;99.90;;;;;;5074196;28;20192;-75
2022/07/02 04:06:01;;;;;;;0.30;0.30;;;18.20;99.90;;;;;;5073869;28;20196;-74
2022/07/02 04:08:27;;;;;;;0.30;0.30;;;17.90;99.90;;;;;;5071598;28;20663;-74
2022/07/02 04:10:53;;;;;;;0.20;0.20;;;17.60;99.90;;;;;;5073717;28;20208;-73
2022/07/02 04:13:19;;;;;;;2.38;1.55;;;17.70;99.90;;;;;;5073521;28;20533;-73
2022/07/02 04:15:44;;;;;;;0.20;0.20;;;17.80;99.90;;;;;;5073762;28;20649;-75
2022/07/02 04:18:10;;;;;;;0.65;0.65;;;17.70;99.90;;;;;;5059218;28;20221;-73
2022/07/02 04:20:36;;;;;;;0.30;0.30;;;17.60;99.90;;;;;;5052622;28;20189;-75
2022/07/02 04:23:01;;;;;;;0.30;0.30;;;17.50;99.90;;;;;;5053834;28;20689;-73
2022/07/02 04:25:28;;;;;;;0.65;0.50;;;17.50;99.90;;;;;;5032384;28;20537;-74
2022/07/02 04:27:54;;;;;;;0.20;0.20;;;17.50;99.90;;;;;;5033828;28;20202;-73
2022/07/02 04:30:20;;;;;;;0.20;0.20;;;17.30;99.90;;;;;;5033327;28;20190;-74
2022/07/02 04:32:46;;;;;;;0.20;0.20;;;17.10;99.90;;;;;;5033564;28;20252;-74
2022/07/02 04:35:11;;;;;;;0.30;0.30;;;17.00;99.90;;;;;;5033442;28;20277;-73
2022/07/02 04:37:37;;;;;;;0.30;0.30;;;17.10;99.90;;;;;;5033169;28;20187;-73
2022/07/02 04:40:04;;;;;;;0.30;0.30;;;17.10;99.90;;;;;;5015483;28;20588;-74
2022/07/02 04:42:30;;;;;;;0.30;0.30;;;17.10;99.90;;;;;;5033341;28;20221;-73
2022/07/02 04:44:56;;;;;;;0.30;0.30;;;17.20;99.90;;;;;;5015747;28;20307;-74
2022/07/02 04:47:21;;;;;;;0.38;0.38;;;17.20;99.90;;;;;;5033085;28;20225;-73
2022/07/02 04:49:47;;;;;;;0.28;0.28;;;16.90;99.90;;;;;;5033565;28;20209;-73
2022/07/02 04:52:13;;;;;;;0.30;0.30;;;17.10;99.90;;;;;;5033134;28;20216;-74
2022/07/02 04:54:38;;;;;;;0.30;0.30;;;17.10;99.90;;;;;;5033060;28;20669;-75
2022/07/02 04:57:04;;;;;;;0.40;0.40;;;16.80;99.90;;;;;;5033233;28;20312;-74
2022/07/02 04:59:30;;;;;;;0.30;0.30;;;17.00;99.90;;;;;;5032136;28;20699;-74
2022/07/02 05:01:56;;;;;;;0.30;0.30;;;16.90;99.90;;;;;;5035981;28;20231;-73
2022/07/02 05:04:21;;;;;;;0.75;0.60;;;16.80;99.90;;;;;;5052554;28;20189;-73
2022/07/02 05:06:47;;;;;;;0.30;0.30;;;16.70;99.90;;;;;;5052370;28;20284;-74
2022/07/02 05:09:13;;;;;;;0.30;0.30;;;16.60;99.90;;;;;;5052779;28;20588;-73
2022/07/02 05:11:38;;;;;;;0.35;0.35;;;16.60;99.90;;;;;;5034782;28;20204;-72
2022/07/02 05:14:04;;;;;;;0.30;0.30;;;16.80;99.90;;;;;;5053224;28;20201;-73
2022/07/02 05:16:30;;;;;;;0.30;0.30;;;16.80;99.90;;;;;;5052173;28;20224;-73
2022/07/02 05:18:55;;;;;;;0.30;0.30;;;17.00;99.90;;;;;;5052828;28;20268;-73
2022/07/02 05:21:21;;;;;;;0.30;0.30;;;17.20;99.90;;;;;;5051896;28;20644;-73
2022/07/02 05:23:47;;;;;;;0.30;0.30;;;17.30;99.90;;;;;;5032832;28;20186;-73
2022/07/02 05:26:13;;;;;;;0.30;0.30;;;17.40;99.90;;;;;;5032913;28;20658;-74
2022/07/02 05:28:38;;;;;;;0.25;0.25;;;17.60;99.90;;;;;;5032467;28;20190;-74
2022/07/02 05:31:04;;;;;;;0.38;0.38;;;17.70;99.90;;;;;;5032688;28;20186;-74
2022/07/02 05:33:30;;;;;;;0.20;0.20;;;17.70;99.90;;;;;;5032733;28;20222;-74
2022/07/02 05:35:55;;;;;;;0.30;0.30;;;17.50;99.90;;;;;;5014124;28;20211;-73
2022/07/02 05:38:21;;;;;;;0.22;0.22;;;17.50;99.90;;;;;;5032087;28;20225;-74
2022/07/02 05:40:47;;;;;;;0.30;0.30;;;17.50;99.90;;;;;;5032455;28;20198;-71
2022/07/02 05:43:13;;;;;;;0.30;0.30;;;17.60;99.90;;;;;;5032612;28;20194;-74
2022/07/02 05:45:38;;;;;;;0.20;0.20;;;17.90;99.90;;;;;;5014805;28;20637;-73
2022/07/02 05:48:04;;;;;;;0.30;0.30;;;18.00;99.90;;;;;;5032744;28;20236;-75
2022/07/02 05:50:30;;;;;;;0.30;0.30;;;18.20;99.90;;;;;;5014173;28;20205;-74
2022/07/02 05:52:56;;;;;;;0.20;0.20;;;18.30;99.90;;;;;;5032137;28;20202;-74
2022/07/02 05:55:22;;;;;;;0.52;0.52;;;18.60;99.90;;;;;;5031903;28;20348;-74
2022/07/02 05:57:47;;;;;;;0.20;0.20;;;18.70;99.90;;;;;;5032036;28;20190;-73
2022/07/02 06:00:13;;;;;;;0.28;0.28;;;18.70;99.90;;;;;;5051177;28;20247;-74
2022/07/02 06:02:39;;;;;;;0.20;0.20;;;18.60;99.90;;;;;;5051824;28;20251;-74
2022/07/02 06:07:50;;;;;;;0.20;0.20;;;18.40;99.90;;;;;;5032212;28;20197;-73
2022/07/02 06:10:18;;;;;;;0.30;0.30;;;18.20;99.90;;;;;;5032005;28;20194;-73
2022/07/02 06:12:49;;;;;;;0.20;0.20;;;18.50;99.90;;;;;;5032106;28;20221;-73
2022/07/02 06:15:16;;;;;;;0.30;0.30;;;18.70;99.90;;;;;;5031851;28;20580;-73
2022/07/02 06:17:42;;;;;;;0.50;0.50;;;18.60;99.90;;;;;;5039515;28;20713;-73
2022/07/02 06:20:09;;;;;;;0.20;0.20;;;18.60;99.90;;;;;;5072215;28;20659;-73
2022/07/02 06:22:35;;;;;;;20.88;0.52;;;18.90;99.90;;;;;;5071044;28;20201;-73
2022/07/02 06:25:00;;;;;;;0.20;0.20;;;18.60;99.90;;;;;;5072032;28;20197;-71
2022/07/02 06:27:26;;;;;;;0.63;0.60;;;18.70;99.90;;;;;;5072105;28;20188;-73
2022/07/02 06:29:52;;;;;;;0.20;0.20;;;18.80;99.90;;;;;;5071671;28;20288;-74
2022/07/02 06:32:18;;;;;;;0.30;0.30;;;18.90;99.90;;;;;;5074835;28;20246;-73
2022/07/02 06:34:44;;;;;;;1.45;0.40;;;19.00;99.90;;;;;;5075623;28;20226;-73
2022/07/02 06:37:10;;;;;;;1.08;0.57;;;19.00;99.90;;;;;;5074704;28;20193;-75
2022/07/02 06:39:36;;;;;;;0.30;0.30;;;19.10;99.90;;;;;;5075445;28;20227;-74
2022/07/02 06:42:22;;;;;;;0.30;0.30;;;19.20;99.90;;;;;;5075851;28;20243;-74
2022/07/02 06:44:50;;;;;;;0.20;0.20;;;19.30;99.90;;;;;;5075493;28;20256;-74
2022/07/02 06:47:17;;;;;;;0.20;0.20;;;19.30;99.90;;;;;;5075915;28;20192;-73
2022/07/02 06:49:43;;;;;;;0.75;0.65;;;19.10;99.90;;;;;;5075346;28;20208;-73
2022/07/02 06:52:10;;;;;;;0.20;0.20;;;19.10;99.90;;;;;;5075582;28;20659;-74
2022/07/02 06:54:36;;;;;;;0.20;0.20;;;19.10;99.90;;;;;;5073718;28;20782;-74
2022/07/02 06:57:03;;;;;;;0.20;0.20;;;19.50;99.90;;;;;;5075676;28;20196;-74
2022/07/02 06:59:28;;;;;;;0.20;0.20;;;19.70;99.90;;;;;;5073712;28;20203;-74
2022/07/02 07:01:54;;;;;;;0.40;0.40;;;19.20;99.90;;;;;;5074953;28;20201;-74
2022/07/02 07:04:19;;;;;;;0.20;0.20;;;19.20;99.90;;;;;;5074083;28;20569;-74
2022/07/02 07:09:14;;;;;;;0.20;0.20;;;19.40;99.90;;;;;;5075223;28;20231;-73
2022/07/02 07:11:40;;;;;;;0.20;0.20;;;19.30;99.90;;;;;;5074367;28;20224;-74
2022/07/02 07:14:06;;;;;;;0.20;0.20;;;19.50;99.90;;;;;;5072069;28;20201;-74
2022/07/02 07:16:31;;;;;;;0.32;0.32;;;19.80;99.90;;;;;;5053574;28;20663;-73
2022/07/02 07:19:06;;;;;;;0.20;0.20;;;19.70;99.90;;;;;;5034349;28;20198;-73
2022/07/02 07:21:36;;;;;;;0.20;0.20;;;19.40;99.90;;;;;;5034650;28;20553;-74
2022/07/02 07:24:02;;;;;;;0.30;0.30;;;19.30;99.90;;;;;;5034543;28;20649;-74
2022/07/02 07:26:28;;;;;;;0.20;0.20;;;19.40;99.90;;;;;;5034654;28;20194;-74
2022/07/02 07:28:54;;;;;;;0.20;0.20;;;19.40;99.90;;;;;;5034697;28;20206;-75
2022/07/02 07:31:20;;;;;;;0.30;0.30;;;19.70;99.90;;;;;;5034250;28;20627;-74
2022/07/02 07:33:47;;;;;;;0.30;0.30;;;19.80;99.90;;;;;;5025517;28;20300;-74
2022/07/02 07:36:12;;;;;;;0.20;0.20;;;20.30;99.90;;;;;;5054450;28;20280;-74
2022/07/02 07:38:39;;;;;;;0.30;0.30;;;20.60;99.90;;;;;;5036232;28;20221;-73
2022/07/02 07:41:04;;;;;;;0.25;0.25;;;20.50;99.90;;;;;;5036401;28;20201;-75
2022/07/02 07:43:30;;;;;;;0.28;0.28;;;20.50;99.90;;;;;;5052912;28;20208;-75
2022/07/02 07:45:56;;;;;;;0.30;0.30;;;20.40;99.90;;;;;;5054676;28;20686;-77
2022/07/02 07:48:22;;;;;;;0.20;0.20;;;20.50;99.90;;;;;;5035872;28;20204;-73
2022/07/02 07:50:47;;;;;;;0.30;0.30;;;20.30;99.90;;;;;;5053804;28;20201;-75
2022/07/02 07:53:13;;;;;;;0.28;0.28;;;20.10;99.90;;;;;;5054637;28;20217;-74
2022/07/02 07:55:42;;;;;;;0.38;0.38;;;20.10;99.90;;;;;;5054288;28;20213;-74
2022/07/02 07:58:08;;;;;;;0.20;0.20;;;20.20;99.90;;;;;;5054349;28;20196;-75
2022/07/02 08:00:33;;;;;;;0.75;0.57;;;20.30;99.90;;;;;;5054135;28;20194;-74
2022/07/02 08:02:59;;;;;;;0.63;0.40;;;20.10;99.90;;;;;;5054179;28;20194;-75
2022/07/02 08:05:25;;;;;;;0.30;0.30;;;20.10;99.90;;;;;;5053699;28;20243;-74
2022/07/02 08:07:51;;;;;;;0.30;0.30;;;20.10;99.90;;;;;;5054400;28;20201;-73
2022/07/02 08:10:16;;;;;;;0.20;0.20;;;20.00;99.90;;;;;;5027784;28;20206;-74
2022/07/02 08:12:43;;;;;;;0.85;0.60;;;20.00;99.90;;;;;;5035763;28;20205;-74
2022/07/02 08:15:09;;;;;;;0.30;0.30;;;19.80;99.90;;;;;;5035985;28;20683;-74
2022/07/02 08:17:36;;;;;;;0.40;0.40;;;20.00;99.90;;;;;;5050398;28;20311;-74
2022/07/02 08:20:05;;;;;;;0.30;0.30;;;20.10;99.90;;;;;;5074353;28;20280;-75
2022/07/02 08:22:31;;;;;;;0.30;0.30;;;20.00;99.90;;;;;;5073820;28;20276;-76
2022/07/02 08:24:57;;;;;;;0.20;0.20;;;20.00;99.90;;;;;;5073707;28;20250;-74
2022/07/02 08:27:24;;;;;;;0.30;0.30;;;20.30;99.90;;;;;;5073618;28;20659;-74
2022/07/02 08:29:50;;;;;;;0.73;0.35;;;20.30;99.90;;;;;;5073619;28;20327;-74
2022/07/02 08:32:16;;;;;;;0.32;0.32;;;20.40;99.90;;;;;;5055802;28;20295;-72
2022/07/02 08:34:41;;;;;;;0.50;0.50;;;20.60;99.90;;;;;;5073477;28;20215;-74
2022/07/02 08:37:07;;;;;;;0.52;0.52;;;20.50;99.90;;;;;;5073862;28;20207;-74
2022/07/02 08:39:33;;;;;;;0.30;0.30;;;20.10;99.90;;;;;;5073179;28;20193;-74
2022/07/02 08:42:00;;;;;;;0.65;0.50;;;19.80;99.90;;;;;;5072261;28;20284;-74
2022/07/02 08:44:27;;;;;;;0.30;0.30;;;19.80;99.90;;;;;;5073440;28;20204;-74
2022/07/02 08:46:53;;;;;;;0.60;0.60;;;19.90;99.90;;;;;;5073036;28;20702;-74
2022/07/02 08:49:19;;;;;;;1.35;0.60;;;20.20;99.90;;;;;;5072855;28;20197;-73
2022/07/02 08:52:06;;;;;;;0.73;0.57;;;20.60;99.90;;;;;;5071771;28;20207;-75
2022/07/02 08:54:32;;;;;;;1.15;0.75;;;20.70;99.90;;;;;;5072574;28;20728;-75
2022/07/02 08:57:01;;;;;;;0.32;0.30;;;20.70;99.90;;;;;;5072870;28;20197;-76
2022/07/02 08:59:29;;;;;;;0.50;0.50;;;21.00;99.90;;;;;;5072963;28;20216;-74
2022/07/02 09:01:56;;;;;;;0.43;0.40;;;21.40;99.90;;;;;;5071475;28;20199;-73
2022/07/02 09:04:24;;;;;;;9.93;0.60;;;21.40;99.90;;;;;;5072729;28;20201;-74
2022/07/02 09:06:53;;;;;;;11.90;0.60;;;21.20;99.90;;;;;;5067242;28;20255;-74
2022/07/02 09:09:19;;;;;;;0.30;0.30;;;20.90;99.90;;;;;;5052944;28;20228;-75
2022/07/02 09:11:46;;;;;;;0.63;0.60;;;20.50;99.90;;;;;;5051629;28;20289;-74
2022/07/02 09:14:12;;;;;;;0.50;0.50;;;20.20;99.90;;;;;;5052690;28;20251;-76
2022/07/02 09:16:38;;;;;;;0.43;0.43;;;20.20;99.90;;;;;;5049497;28;20209;-75
2022/07/02 09:19:04;;;;;;;0.47;0.47;;;20.30;99.90;;;;;;5032615;28;20206;-74
2022/07/02 09:21:50;;;;;;;0.30;0.30;;;20.10;99.90;;;;;;5032674;28;20186;-75
2022/07/02 09:24:38;;;;;;;0.47;0.47;;;20.30;99.90;;;;;;5015347;28;20209;-74
2022/07/02 09:27:07;;;;;;;0.40;0.40;;;20.10;99.90;;;;;;5032567;28;20186;-74
2022/07/02 09:29:42;;;;;;;1.13;0.70;;;19.90;99.90;;;;;;5031990;28;20697;-75
2022/07/02 09:32:09;;;;;;;2.88;0.75;;;20.30;99.90;;;;;;5032306;28;20194;-73
2022/07/02 09:34:39;;;;;;;0.73;0.50;;;20.40;99.90;;;;;;5014782;28;20206;-75
2022/07/02 09:37:18;;;;;;;0.40;0.40;;;20.10;99.90;;;;;;5032860;28;20645;-74
2022/07/02 09:39:45;;;;;;;15.32;1.95;;;20.00;99.90;;;;;;5014634;28;20629;-73
2022/07/02 09:42:11;;;;;;;0.20;0.20;;;20.10;99.90;;;;;;5032565;28;20237;-73
2022/07/02 09:44:47;;;;;;;0.50;0.50;;;20.30;99.90;;;;;;5045787;28;20209;-75
2022/07/02 09:47:13;;;;;;;12.55;0.85;;;20.50;99.90;;;;;;5052381;28;20223;-74
2022/07/02 09:49:49;;;;;;;1.27;0.70;;;20.70;99.90;;;;;;5052407;28;20261;-74
2022/07/02 09:52:18;;;;;;;0.85;0.40;;;20.90;99.90;;;;;;5052394;28;20201;-74
2022/07/02 09:54:46;;;;;;;4.40;0.50;;;21.10;99.90;;;;;;5034052;28;20300;-75
2022/07/02 09:57:12;;;;;;;0.20;0.20;;;21.30;99.90;;;;;;5052357;28;20629;-74
2022/07/02 09:59:39;;;;;;;0.55;0.47;;;21.50;99.90;;;;;;5034232;28;20287;-72
2022/07/02 10:02:17;;;;;;;0.20;0.20;;;21.70;99.90;;;;;;5052693;28;20707;-74
2022/07/02 10:04:44;;;;;;;2.28;0.57;;;21.90;99.90;;;;;;5034061;28;20201;-73
2022/07/02 10:07:10;;;;;;;1.42;0.60;;;22.10;99.90;;;;;;5038359;28;20194;-74
2022/07/02 10:09:39;;;;;;;0.80;0.68;;;22.00;99.90;;;;;;5036197;28;20201;-76
2022/07/02 10:12:07;;;;;;;0.20;0.20;;;21.90;99.90;;;;;;5036359;28;20285;-74
2022/07/02 10:14:36;;;;;;;0.52;0.50;;;22.10;99.90;;;;;;5036085;28;20240;-74
2022/07/02 10:17:02;;;;;;;2.17;0.38;;;22.50;99.90;;;;;;5036174;28;20590;-75
2022/07/02 10:19:30;;;;;;;0.50;0.50;;;23.10;99.90;;;;;;5035906;28;20557;-74
2022/07/02 10:21:58;;;;;;;0.65;0.65;;;22.90;99.90;;;;;;5018047;28;20629;-73
2022/07/02 10:24:25;;;;;;;0.22;0.22;;;22.20;99.90;;;;;;5035724;28;20251;-74
2022/07/02 10:26:51;;;;;;;4.03;1.05;;;22.40;99.90;;;;;;5017749;28;20201;-74
2022/07/02 10:29:18;;;;;;;1.15;0.43;;;22.10;99.90;;;;;;5035057;28;20281;-73
2022/07/02 10:31:52;;;;;;;6.43;0.65;;;22.30;99.90;;;;;;5035629;28;20227;-75
2022/07/02 10:34:35;;;;;;;0.30;0.30;;;22.40;99.90;;;;;;5035374;28;20627;-73
2022/07/02 10:37:01;;;;;;;0.20;0.20;;;22.30;99.90;;;;;;5035160;28;20684;-74
2022/07/02 10:39:38;;;;;;;0.30;0.30;;;22.20;99.90;;;;;;5019435;28;20733;-76
2022/07/02 10:42:04;;;;;;;0.30;0.30;;;22.40;99.90;;;;;;5037580;28;20201;-73
2022/07/02 10:44:38;;;;;;;0.20;0.20;;;23.40;99.90;;;;;;5055642;28;20221;-75
2022/07/02 10:47:04;;;;;;;0.30;0.30;;;24.40;99.90;;;;;;5055691;28;20193;-74
2022/07/02 10:49:31;;;;;;;0.57;0.57;;;23.50;99.90;;;;;;5055626;28;20662;-74
2022/07/02 10:51:57;;;;;;;0.30;0.30;;;23.30;99.90;;;;;;5055713;28;20198;-74
2022/07/02 10:54:32;;;;;;;0.80;0.80;;;23.00;99.90;;;;;;5055360;28;20223;-74
2022/07/02 10:56:58;;;;;;;6.60;0.90;;;23.40;99.90;;;;;;5055421;28;20562;-75
2022/07/02 10:59:34;;;;;;;1.58;0.73;;;23.50;99.90;;;;;;5037077;28;20508;-74
2022/07/02 11:02:05;;;;;;;0.20;0.20;;;23.80;99.90;;;;;;5055469;28;20212;-74
2022/07/02 11:04:31;;;;;;;0.32;0.32;;;23.90;99.90;;;;;;5054914;28;20197;-75
2022/07/02 11:07:11;;;;;;;0.30;0.30;;;24.20;99.90;;;;;;5055005;28;20571;-73
2022/07/02 11:09:50;;;;;;;0.20;0.20;;;24.80;99.90;;;;;;5055248;28;20683;-75
2022/07/02 11:12:26;;;;;;;2.22;0.65;;;25.00;99.90;;;;;;5037215;28;20200;-73
2022/07/02 11:14:54;;;;;;;0.40;0.40;;;25.10;99.90;;;;;;5055189;28;20683;-74
2022/07/02 11:17:23;;;;;;;0.63;0.40;;;25.00;99.90;;;;;;5054690;28;20256;-73
2022/07/02 11:19:54;;;;;;;0.55;0.50;;;25.40;99.90;;;;;;5036886;28;20280;-74
2022/07/02 11:22:21;;;;;;;0.57;0.50;;;25.40;99.90;;;;;;5036741;28;20284;-73
2022/07/02 11:24:47;;;;;;;0.40;0.40;;;25.30;99.90;;;;;;5054881;28;20189;-74
2022/07/02 11:27:14;;;;;;;0.30;0.30;;;24.50;99.90;;;;;;5055363;28;20198;-73
2022/07/02 11:29:39;;;;;;;0.10;0.10;;;23.80;99.90;;;;;;5036496;28;20214;-74
2022/07/02 11:32:05;;;;;;;0.25;0.25;;;24.00;99.90;;;;;;5054921;28;20173;-74
2022/07/02 11:34:31;;;;;;;1.17;0.30;;;24.20;99.90;;;;;;5036319;28;20233;-74
2022/07/02 11:36:57;;;;;;;0.57;0.45;;;24.10;99.90;;;;;;5034674;28;20201;-73
2022/07/02 11:39:27;;;;;;;0.30;0.30;;;24.80;99.90;;;;;;5053988;28;20567;-74
2022/07/02 11:41:53;;;;;;;0.52;0.45;;;25.60;99.90;;;;;;5055187;28;20185;-74
2022/07/02 11:44:29;;;;;;;0.20;0.20;;;26.20;99.90;;;;;;5036783;28;20201;-74
2022/07/02 11:46:59;;;;;;;3.03;0.25;;;25.50;99.90;;;;;;5054732;28;20201;-73
2022/07/02 11:49:34;;;;;;;0.28;0.28;;;25.50;99.90;;;;;;5054280;28;20236;-73
2022/07/02 11:51:59;;;;;;;8.30;0.50;;;25.50;99.90;;;;;;5054716;28;20281;-72
2022/07/02 11:54:26;;;;;;;0.30;0.20;;;25.20;99.90;;;;;;5054059;28;20296;-74
2022/07/02 11:56:53;;;;;;;0.10;0.10;;;25.10;99.90;;;;;;5054065;28;20268;-74
2022/07/02 11:59:22;;;;;;;0.75;0.68;;;25.40;99.90;;;;;;5054615;28;20190;-73
2022/07/02 12:01:49;;;;;;;0.15;0.15;;;25.40;99.90;;;;;;5053965;28;20235;-74
2022/07/02 12:04:18;;;;;;;0.63;0.32;;;25.30;99.90;;;;;;5054166;28;20200;-73
2022/07/02 12:06:51;;;;;;;0.30;0.30;;;25.80;99.90;;;;;;5032599;28;20202;-74
2022/07/02 12:09:23;;;;;;;0.30;0.30;;;26.10;99.90;;;;;;5034077;28;20332;-73
2022/07/02 12:11:49;;;;;;;0.20;0.20;;;25.60;99.90;;;;;;5034040;28;20202;-72
2022/07/02 12:14:16;;;;;;;5.55;0.40;;;25.30;99.90;;;;;;5034457;28;20766;-72
2022/07/02 12:16:45;;;;;;;0.28;0.28;;;24.90;99.90;;;;;;5033513;28;20201;-72
2022/07/02 12:19:13;;;;;;;0.20;0.20;;;24.60;99.90;;;;;;5033843;28;20237;-73
2022/07/02 12:21:45;;;;;;;0.57;0.35;;;23.80;99.90;;;;;;5033769;28;20182;-73
2022/07/02 12:24:35;;;;;;;0.30;0.30;;;23.50;99.90;;;;;;5033976;28;20203;-74
2022/07/02 12:27:04;;;;;;;0.17;0.17;;;24.10;99.90;;;;;;5033732;28;20194;-73
2022/07/02 12:29:53;;;;;;;0.35;0.35;;;24.70;99.90;;;;;;5033320;28;20276;-74
2022/07/02 12:32:31;;;;;;;0.10;0.10;;;25.10;99.90;;;;;;5040010;28;20680;-73
2022/07/02 12:34:59;;;;;;;3.08;0.95;;;25.90;99.90;;;;;;5053383;28;20212;-73
2022/07/02 12:37:25;;;;;;;0.35;0.30;;;25.60;99.90;;;;;;5053250;28;20204;-73
2022/07/02 12:40:21;;;;;;;0.20;0.20;;;25.40;99.90;;;;;;5035718;28;20206;-73
2022/07/02 12:42:47;;;;;;;0.25;0.25;;;24.50;99.90;;;;;;5053697;28;20644;-73
2022/07/02 12:45:30;;;;;;;0.52;0.50;;;23.80;99.90;;;;;;5053389;28;20193;-73
2022/07/02 12:48:08;;;;;;;0.20;0.20;;;23.30;99.90;;;;;;5053370;28;20204;-73
2022/07/02 12:50:37;;;;;;;0.30;0.30;;;23.00;99.90;;;;;;5053635;28;20322;-73
2022/07/02 12:53:07;;;;;;;0.10;0.10;;;23.30;99.90;;;;;;5053296;28;20262;-72